< Typhoon 198705 1987 Season Typhoon 198707 >
Typhoon 198706 (VERNON)
General InformationTrack Information on Google MapsDetailed Wind InformationList of All Images || Disaster Info.ResourceGoogle EarthGE AnimationAtom FeedGeoJSON
Detalied Best Track (Time Zone = UTC)
Year Month Day Hour Lat. Long. Pressure (hPa) Wind (kt) Class Image Chart
1987 7 16 06 11.5 140.5 1002 0 2 Image Chart
1987 7 16 12 12.1 138.7 1002 0 2 Image Chart
1987 7 16 18 12.6 136.8 1002 0 2 Image Chart
1987 7 17 00 12.9 135.2 1002 0 2 Image Chart
1987 7 17 06 13.0 133.8 1000 0 2 Image Chart
1987 7 17 12 13.1 132.7 1000 0 2 Image Chart
1987 7 17 18 13.1 131.6 1000 0 2 Image Chart
1987 7 18 00 13.2 130.5 1000 0 2 Image Chart
1987 7 18 06 13.5 129.2 998 0 2 Image Chart
1987 7 18 12 14.0 128.3 996 40 3 Image Chart
1987 7 18 18 14.7 127.5 992 40 3 Image Chart
1987 7 19 00 15.5 126.8 990 50 4 Image Chart
1987 7 19 06 16.6 126.2 985 55 4 Image Chart
1987 7 19 12 17.8 125.5 985 55 4 Image Chart
1987 7 19 18 18.6 124.7 985 55 4 Image Chart
1987 7 20 00 19.3 124.2 985 55 4 Image Chart
1987 7 20 06 20.2 123.7 985 60 4 Image Chart
1987 7 20 12 21.2 122.8 990 60 4 Image Chart
1987 7 20 18 22.1 122.4 985 60 4 Image Chart
1987 7 21 00 23.1 122.2 985 55 4 Image Chart
1987 7 21 06 24.8 122.2 990 55 4 Image Chart
1987 7 21 12 26.1 121.3 994 55 4 Image Chart
1987 7 21 18 27.0 121.4 998 45 3 Image Chart
1987 7 22 00 28.6 122.3 1000 0 2 Image Chart
1987 7 22 06 30.8 123.4 1000 0 2 Image Chart
Japan Meteorological Agency Best Track Data | Correction Date : 1992-10-21
< Typhoon 198705 1987 Season Typhoon 198707 >

Help